sensor_id;sensor_type;location;lat;lon;timestamp;P1;durP1;ratioP1;P2;durP2;ratioP2
64011;SDS011;50211;52.768;12.124;2023-02-13T00:01:07;16.33;;;6.57;;
64011;SDS011;50211;52.768;12.124;2023-02-13T00:03:32;22.33;;;7.03;;
64011;SDS011;50211;52.768;12.124;2023-02-13T00:05:58;16.87;;;6.47;;
64011;SDS011;50211;52.768;12.124;2023-02-13T00:08:23;18.60;;;6.50;;
64011;SDS011;50211;52.768;12.124;2023-02-13T00:10:49;19.73;;;7.00;;
64011;SDS011;50211;52.768;12.124;2023-02-13T00:13:15;14.03;;;5.83;;
64011;SDS011;50211;52.768;12.124;2023-02-13T00:15:40;13.57;;;6.93;;
64011;SDS011;50211;52.768;12.124;2023-02-13T00:18:06;16.43;;;6.37;;
64011;SDS011;50211;52.768;12.124;2023-02-13T00:20:31;16.03;;;5.73;;
64011;SDS011;50211;52.768;12.124;2023-02-13T00:22:57;17.00;;;6.50;;
64011;SDS011;50211;52.768;12.124;2023-02-13T00:25:23;13.70;;;6.27;;
64011;SDS011;50211;52.768;12.124;2023-02-13T00:27:51;20.87;;;6.97;;
64011;SDS011;50211;52.768;12.124;2023-02-13T00:30:18;17.93;;;6.57;;
64011;SDS011;50211;52.768;12.124;2023-02-13T00:32:44;17.57;;;7.50;;
64011;SDS011;50211;52.768;12.124;2023-02-13T00:35:10;18.93;;;7.03;;
64011;SDS011;50211;52.768;12.124;2023-02-13T00:37:35;16.30;;;6.47;;
64011;SDS011;50211;52.768;12.124;2023-02-13T00:40:01;15.53;;;7.60;;
64011;SDS011;50211;52.768;12.124;2023-02-13T00:42:26;15.30;;;6.17;;
64011;SDS011;50211;52.768;12.124;2023-02-13T00:44:52;14.17;;;5.63;;
64011;SDS011;50211;52.768;12.124;2023-02-13T00:47:18;14.67;;;6.40;;
64011;SDS011;50211;52.768;12.124;2023-02-13T00:49:44;16.30;;;6.73;;
64011;SDS011;50211;52.768;12.124;2023-02-13T00:52:10;17.13;;;6.67;;
64011;SDS011;50211;52.768;12.124;2023-02-13T00:54:35;16.97;;;6.73;;
64011;SDS011;50211;52.768;12.124;2023-02-13T00:57:01;15.67;;;6.00;;
64011;SDS011;50211;52.768;12.124;2023-02-13T00:59:27;18.77;;;6.30;;
64011;SDS011;50211;52.768;12.124;2023-02-13T01:01:52;16.70;;;6.87;;
64011;SDS011;50211;52.768;12.124;2023-02-13T01:04:18;14.07;;;5.33;;
64011;SDS011;50211;52.768;12.124;2023-02-13T01:06:43;18.90;;;6.77;;
64011;SDS011;50211;52.768;12.124;2023-02-13T01:09:09;15.60;;;6.47;;
64011;SDS011;50211;52.768;12.124;2023-02-13T01:11:35;24.10;;;6.00;;
64011;SDS011;50211;52.768;12.124;2023-02-13T01:14:00;13.63;;;5.87;;
64011;SDS011;50211;52.768;12.124;2023-02-13T01:16:26;14.27;;;5.57;;
64011;SDS011;50211;52.768;12.124;2023-02-13T01:18:52;14.60;;;5.80;;
64011;SDS011;50211;52.768;12.124;2023-02-13T01:21:18;15.40;;;5.33;;
64011;SDS011;50211;52.768;12.124;2023-02-13T01:23:44;13.03;;;6.20;;
64011;SDS011;50211;52.768;12.124;2023-02-13T01:26:14;14.67;;;6.10;;
64011;SDS011;50211;52.768;12.124;2023-02-13T01:28:43;15.03;;;6.33;;
64011;SDS011;50211;52.768;12.124;2023-02-13T01:31:08;14.43;;;5.87;;
64011;SDS011;50211;52.768;12.124;2023-02-13T01:33:34;17.50;;;7.53;;
64011;SDS011;50211;52.768;12.124;2023-02-13T01:36:04;14.13;;;6.13;;
64011;SDS011;50211;52.768;12.124;2023-02-13T01:38:34;15.70;;;5.87;;
64011;SDS011;50211;52.768;12.124;2023-02-13T01:40:59;16.73;;;6.03;;
64011;SDS011;50211;52.768;12.124;2023-02-13T01:43:29;16.53;;;6.47;;
64011;SDS011;50211;52.768;12.124;2023-02-13T01:46:25;16.43;;;6.50;;
64011;SDS011;50211;52.768;12.124;2023-02-13T01:49:12;12.63;;;5.90;;
64011;SDS011;50211;52.768;12.124;2023-02-13T01:51:42;15.83;;;6.87;;
64011;SDS011;50211;52.768;12.124;2023-02-13T01:54:31;14.67;;;6.70;;
64011;SDS011;50211;52.768;12.124;2023-02-13T01:56:58;16.77;;;6.40;;
64011;SDS011;50211;52.768;12.124;2023-02-13T01:59:47;15.27;;;6.57;;
64011;SDS011;50211;52.768;12.124;2023-02-13T02:02:16;17.90;;;6.47;;
64011;SDS011;50211;52.768;12.124;2023-02-13T02:04:43;17.40;;;6.20;;
64011;SDS011;50211;52.768;12.124;2023-02-13T02:07:12;14.90;;;6.53;;
64011;SDS011;50211;52.768;12.124;2023-02-13T02:09:42;17.40;;;6.77;;
64011;SDS011;50211;52.768;12.124;2023-02-13T02:14:43;20.03;;;6.40;;
64011;SDS011;50211;52.768;12.124;2023-02-13T02:17:09;13.97;;;6.30;;
64011;SDS011;50211;52.768;12.124;2023-02-13T02:19:49;16.93;;;6.50;;
64011;SDS011;50211;52.768;12.124;2023-02-13T02:22:38;16.80;;;7.07;;
64011;SDS011;50211;52.768;12.124;2023-02-13T02:31:08;20.67;;;6.57;;
64011;SDS011;50211;52.768;12.124;2023-02-13T02:39:20;14.17;;;6.70;;
64011;SDS011;50211;52.768;12.124;2023-02-13T02:42:17;16.73;;;6.10;;
64011;SDS011;50211;52.768;12.124;2023-02-13T02:45:00;17.87;;;6.90;;
64011;SDS011;50211;52.768;12.124;2023-02-13T02:47:55;14.43;;;5.97;;
64011;SDS011;50211;52.768;12.124;2023-02-13T02:50:47;16.77;;;5.67;;
64011;SDS011;50211;52.768;12.124;2023-02-13T02:53:16;19.83;;;6.90;;
64011;SDS011;50211;52.768;12.124;2023-02-13T02:56:21;23.23;;;6.37;;
64011;SDS011;50211;52.768;12.124;2023-02-13T02:59:05;14.80;;;6.20;;
64011;SDS011;50211;52.768;12.124;2023-02-13T03:01:54;17.37;;;6.73;;
64011;SDS011;50211;52.768;12.124;2023-02-13T03:04:44;13.17;;;6.17;;
64011;SDS011;50211;52.768;12.124;2023-02-13T03:07:31;12.73;;;5.53;;
64011;SDS011;50211;52.768;12.124;2023-02-13T03:09:58;12.07;;;5.53;;
64011;SDS011;50211;52.768;12.124;2023-02-13T03:13:00;18.20;;;6.47;;
64011;SDS011;50211;52.768;12.124;2023-02-13T03:15:46;14.03;;;6.30;;
64011;SDS011;50211;52.768;12.124;2023-02-13T03:18:37;14.07;;;6.60;;
64011;SDS011;50211;52.768;12.124;2023-02-13T03:24:32;15.00;;;5.40;;
64011;SDS011;50211;52.768;12.124;2023-02-13T03:27:10;13.03;;;6.07;;
64011;SDS011;50211;52.768;12.124;2023-02-13T03:35:36;13.90;;;5.97;;
64011;SDS011;50211;52.768;12.124;2023-02-13T03:38:57;14.97;;;5.23;;
64011;SDS011;50211;52.768;12.124;2023-02-13T03:41:57;11.93;;;4.90;;
64011;SDS011;50211;52.768;12.124;2023-02-13T03:47:38;11.07;;;4.63;;
64011;SDS011;50211;52.768;12.124;2023-02-13T03:50:06;13.23;;;5.07;;
64011;SDS011;50211;52.768;12.124;2023-02-13T03:55:18;12.30;;;4.87;;
64011;SDS011;50211;52.768;12.124;2023-02-13T03:58:16;7.50;;;3.90;;
64011;SDS011;50211;52.768;12.124;2023-02-13T04:01:11;10.33;;;5.20;;
64011;SDS011;50211;52.768;12.124;2023-02-13T04:03:44;10.27;;;5.00;;
64011;SDS011;50211;52.768;12.124;2023-02-13T04:09:18;11.17;;;4.77;;
64011;SDS011;50211;52.768;12.124;2023-02-13T04:14:45;10.97;;;5.17;;
64011;SDS011;50211;52.768;12.124;2023-02-13T04:17:18;11.27;;;4.90;;
64011;SDS011;50211;52.768;12.124;2023-02-13T04:19:48;12.77;;;5.30;;
64011;SDS011;50211;52.768;12.124;2023-02-13T04:22:14;13.40;;;5.20;;
64011;SDS011;50211;52.768;12.124;2023-02-13T04:24:40;15.17;;;5.53;;
64011;SDS011;50211;52.768;12.124;2023-02-13T04:27:06;11.10;;;4.57;;
64011;SDS011;50211;52.768;12.124;2023-02-13T04:29:31;10.77;;;5.43;;
64011;SDS011;50211;52.768;12.124;2023-02-13T04:31:57;9.73;;;4.50;;
64011;SDS011;50211;52.768;12.124;2023-02-13T04:34:22;10.50;;;4.57;;
64011;SDS011;50211;52.768;12.124;2023-02-13T04:36:48;14.27;;;5.63;;
64011;SDS011;50211;52.768;12.124;2023-02-13T04:39:13;9.77;;;4.77;;
64011;SDS011;50211;52.768;12.124;2023-02-13T04:41:39;12.63;;;5.80;;
64011;SDS011;50211;52.768;12.124;2023-02-13T04:44:04;10.73;;;5.17;;
64011;SDS011;50211;52.768;12.124;2023-02-13T04:46:30;10.33;;;4.90;;
64011;SDS011;50211;52.768;12.124;2023-02-13T04:48:55;10.00;;;4.37;;
64011;SDS011;50211;52.768;12.124;2023-02-13T04:51:21;12.40;;;5.50;;
64011;SDS011;50211;52.768;12.124;2023-02-13T04:53:46;10.50;;;5.07;;
64011;SDS011;50211;52.768;12.124;2023-02-13T04:56:12;11.13;;;5.03;;
64011;SDS011;50211;52.768;12.124;2023-02-13T04:58:37;8.80;;;4.17;;
64011;SDS011;50211;52.768;12.124;2023-02-13T05:01:10;12.67;;;5.57;;
64011;SDS011;50211;52.768;12.124;2023-02-13T05:03:36;9.97;;;4.77;;
64011;SDS011;50211;52.768;12.124;2023-02-13T05:06:02;9.53;;;5.27;;
64011;SDS011;50211;52.768;12.124;2023-02-13T05:08:28;10.53;;;5.30;;
64011;SDS011;50211;52.768;12.124;2023-02-13T05:10:53;11.43;;;5.10;;
64011;SDS011;50211;52.768;12.124;2023-02-13T05:13:19;10.50;;;4.80;;
64011;SDS011;50211;52.768;12.124;2023-02-13T05:15:46;10.30;;;4.83;;
64011;SDS011;50211;52.768;12.124;2023-02-13T05:18:12;11.00;;;5.40;;
64011;SDS011;50211;52.768;12.124;2023-02-13T05:20:37;11.07;;;4.57;;
64011;SDS011;50211;52.768;12.124;2023-02-13T05:23:03;11.23;;;4.87;;
64011;SDS011;50211;52.768;12.124;2023-02-13T05:25:46;13.17;;;5.47;;
64011;SDS011;50211;52.768;12.124;2023-02-13T05:28:12;11.30;;;5.93;;
64011;SDS011;50211;52.768;12.124;2023-02-13T05:30:57;10.53;;;4.87;;
64011;SDS011;50211;52.768;12.124;2023-02-13T05:33:23;11.67;;;6.00;;
64011;SDS011;50211;52.768;12.124;2023-02-13T05:35:49;12.17;;;5.80;;
64011;SDS011;50211;52.768;12.124;2023-02-13T05:38:14;13.70;;;5.77;;
64011;SDS011;50211;52.768;12.124;2023-02-13T05:40:40;16.63;;;5.83;;
64011;SDS011;50211;52.768;12.124;2023-02-13T05:43:05;14.73;;;5.13;;
64011;SDS011;50211;52.768;12.124;2023-02-13T05:45:31;14.20;;;5.27;;
64011;SDS011;50211;52.768;12.124;2023-02-13T05:47:56;15.07;;;6.17;;
64011;SDS011;50211;52.768;12.124;2023-02-13T05:50:22;14.13;;;5.47;;
64011;SDS011;50211;52.768;12.124;2023-02-13T05:52:47;13.53;;;5.57;;
64011;SDS011;50211;52.768;12.124;2023-02-13T05:55:13;13.27;;;5.53;;
64011;SDS011;50211;52.768;12.124;2023-02-13T05:57:38;15.87;;;5.77;;
64011;SDS011;50211;52.768;12.124;2023-02-13T06:00:04;10.93;;;5.53;;
64011;SDS011;50211;52.768;12.124;2023-02-13T06:02:30;17.10;;;6.30;;
64011;SDS011;50211;52.768;12.124;2023-02-13T06:04:55;14.63;;;5.63;;
64011;SDS011;50211;52.768;12.124;2023-02-13T06:07:21;12.10;;;5.20;;
64011;SDS011;50211;52.768;12.124;2023-02-13T06:09:46;15.27;;;5.77;;
64011;SDS011;50211;52.768;12.124;2023-02-13T06:12:12;13.17;;;5.40;;
64011;SDS011;50211;52.768;12.124;2023-02-13T06:14:37;13.70;;;6.40;;
64011;SDS011;50211;52.768;12.124;2023-02-13T06:17:03;14.33;;;6.13;;
64011;SDS011;50211;52.768;12.124;2023-02-13T06:19:28;15.13;;;5.87;;
64011;SDS011;50211;52.768;12.124;2023-02-13T06:21:54;14.87;;;6.23;;
64011;SDS011;50211;52.768;12.124;2023-02-13T06:24:19;14.83;;;5.70;;
64011;SDS011;50211;52.768;12.124;2023-02-13T06:26:45;16.87;;;5.67;;
64011;SDS011;50211;52.768;12.124;2023-02-13T06:29:10;10.20;;;5.60;;
64011;SDS011;50211;52.768;12.124;2023-02-13T06:31:36;16.33;;;6.73;;
64011;SDS011;50211;52.768;12.124;2023-02-13T06:34:02;15.37;;;5.90;;
64011;SDS011;50211;52.768;12.124;2023-02-13T06:36:28;18.53;;;6.63;;
64011;SDS011;50211;52.768;12.124;2023-02-13T06:38:53;13.17;;;6.07;;
64011;SDS011;50211;52.768;12.124;2023-02-13T06:41:19;15.37;;;6.67;;
64011;SDS011;50211;52.768;12.124;2023-02-13T06:43:44;13.77;;;5.93;;
64011;SDS011;50211;52.768;12.124;2023-02-13T06:46:09;13.70;;;5.60;;
64011;SDS011;50211;52.768;12.124;2023-02-13T06:48:35;14.60;;;6.13;;
64011;SDS011;50211;52.768;12.124;2023-02-13T06:51:01;15.20;;;6.57;;
64011;SDS011;50211;52.768;12.124;2023-02-13T06:53:27;25.03;;;13.17;;
64011;SDS011;50211;52.768;12.124;2023-02-13T06:55:53;37.37;;;23.53;;
64011;SDS011;50211;52.768;12.124;2023-02-13T06:58:20;41.87;;;27.37;;
64011;SDS011;50211;52.768;12.124;2023-02-13T07:00:46;21.60;;;11.27;;
64011;SDS011;50211;52.768;12.124;2023-02-13T07:03:12;21.27;;;10.13;;
64011;SDS011;50211;52.768;12.124;2023-02-13T07:05:38;16.93;;;7.57;;
64011;SDS011;50211;52.768;12.124;2023-02-13T07:08:05;19.50;;;8.73;;
64011;SDS011;50211;52.768;12.124;2023-02-13T07:10:31;19.67;;;8.63;;
64011;SDS011;50211;52.768;12.124;2023-02-13T07:12:57;22.97;;;8.97;;
64011;SDS011;50211;52.768;12.124;2023-02-13T07:15:22;15.37;;;7.30;;
64011;SDS011;50211;52.768;12.124;2023-02-13T07:17:48;19.07;;;9.27;;
64011;SDS011;50211;52.768;12.124;2023-02-13T07:20:19;15.67;;;6.57;;
64011;SDS011;50211;52.768;12.124;2023-02-13T07:22:45;20.70;;;8.87;;
64011;SDS011;50211;52.768;12.124;2023-02-13T07:25:10;22.90;;;8.43;;
64011;SDS011;50211;52.768;12.124;2023-02-13T07:27:36;25.50;;;11.30;;
64011;SDS011;50211;52.768;12.124;2023-02-13T07:30:02;20.67;;;8.47;;
64011;SDS011;50211;52.768;12.124;2023-02-13T07:32:27;16.93;;;8.57;;
64011;SDS011;50211;52.768;12.124;2023-02-13T07:34:53;17.77;;;7.80;;
64011;SDS011;50211;52.768;12.124;2023-02-13T07:37:18;21.30;;;9.40;;
64011;SDS011;50211;52.768;12.124;2023-02-13T07:39:44;23.40;;;9.30;;
64011;SDS011;50211;52.768;12.124;2023-02-13T07:42:09;20.97;;;8.17;;
64011;SDS011;50211;52.768;12.124;2023-02-13T07:44:35;20.03;;;9.43;;
64011;SDS011;50211;52.768;12.124;2023-02-13T07:47:00;26.20;;;12.07;;
64011;SDS011;50211;52.768;12.124;2023-02-13T07:49:26;26.40;;;11.37;;
64011;SDS011;50211;52.768;12.124;2023-02-13T07:51:51;25.60;;;10.43;;
64011;SDS011;50211;52.768;12.124;2023-02-13T07:54:17;22.17;;;10.50;;
64011;SDS011;50211;52.768;12.124;2023-02-13T07:56:42;23.67;;;10.13;;
64011;SDS011;50211;52.768;12.124;2023-02-13T07:59:09;23.97;;;11.37;;
64011;SDS011;50211;52.768;12.124;2023-02-13T08:01:35;30.13;;;8.37;;
64011;SDS011;50211;52.768;12.124;2023-02-13T08:04:00;21.63;;;8.93;;
64011;SDS011;50211;52.768;12.124;2023-02-13T08:06:26;21.47;;;8.53;;
64011;SDS011;50211;52.768;12.124;2023-02-13T08:08:51;23.20;;;9.90;;
64011;SDS011;50211;52.768;12.124;2023-02-13T08:11:37;18.53;;;7.80;;
64011;SDS011;50211;52.768;12.124;2023-02-13T08:14:17;27.83;;;10.27;;
64011;SDS011;50211;52.768;12.124;2023-02-13T08:16:43;26.63;;;10.57;;
64011;SDS011;50211;52.768;12.124;2023-02-13T08:19:09;27.50;;;10.87;;
64011;SDS011;50211;52.768;12.124;2023-02-13T08:21:34;28.70;;;12.67;;
64011;SDS011;50211;52.768;12.124;2023-02-13T08:24:02;26.70;;;11.43;;
64011;SDS011;50211;52.768;12.124;2023-02-13T08:26:29;28.73;;;10.70;;
64011;SDS011;50211;52.768;12.124;2023-02-13T08:28:55;24.53;;;9.83;;
64011;SDS011;50211;52.768;12.124;2023-02-13T08:31:21;22.30;;;11.10;;
64011;SDS011;50211;52.768;12.124;2023-02-13T08:33:46;26.93;;;9.97;;
64011;SDS011;50211;52.768;12.124;2023-02-13T08:36:12;19.13;;;8.37;;
64011;SDS011;50211;52.768;12.124;2023-02-13T08:38:37;16.83;;;9.03;;
64011;SDS011;50211;52.768;12.124;2023-02-13T08:41:03;24.37;;;9.30;;
64011;SDS011;50211;52.768;12.124;2023-02-13T08:43:29;22.00;;;11.27;;
64011;SDS011;50211;52.768;12.124;2023-02-13T08:45:57;21.97;;;10.43;;
64011;SDS011;50211;52.768;12.124;2023-02-13T08:48:23;23.27;;;8.93;;
64011;SDS011;50211;52.768;12.124;2023-02-13T08:50:49;21.60;;;9.33;;
64011;SDS011;50211;52.768;12.124;2023-02-13T08:53:14;24.33;;;8.80;;
64011;SDS011;50211;52.768;12.124;2023-02-13T08:55:40;23.40;;;8.27;;
64011;SDS011;50211;52.768;12.124;2023-02-13T08:58:05;21.23;;;9.07;;
64011;SDS011;50211;52.768;12.124;2023-02-13T09:00:31;19.23;;;7.47;;
64011;SDS011;50211;52.768;12.124;2023-02-13T09:03:00;23.80;;;10.77;;
64011;SDS011;50211;52.768;12.124;2023-02-13T09:05:26;22.10;;;8.97;;
64011;SDS011;50211;52.768;12.124;2023-02-13T09:07:52;27.13;;;10.53;;
64011;SDS011;50211;52.768;12.124;2023-02-13T09:10:18;21.97;;;8.87;;
64011;SDS011;50211;52.768;12.124;2023-02-13T09:12:44;20.43;;;8.27;;
64011;SDS011;50211;52.768;12.124;2023-02-13T09:15:16;26.50;;;10.53;;
64011;SDS011;50211;52.768;12.124;2023-02-13T09:17:42;22.97;;;9.20;;
64011;SDS011;50211;52.768;12.124;2023-02-13T09:20:07;22.80;;;9.80;;
64011;SDS011;50211;52.768;12.124;2023-02-13T09:22:33;34.03;;;15.83;;
64011;SDS011;50211;52.768;12.124;2023-02-13T09:24:59;22.47;;;9.57;;
64011;SDS011;50211;52.768;12.124;2023-02-13T09:27:28;18.08;;;7.80;;
64011;SDS011;50211;52.768;12.124;2023-02-13T09:29:54;24.27;;;9.57;;
64011;SDS011;50211;52.768;12.124;2023-02-13T09:32:19;25.33;;;11.97;;
64011;SDS011;50211;52.768;12.124;2023-02-13T09:34:45;29.30;;;10.80;;
64011;SDS011;50211;52.768;12.124;2023-02-13T09:37:11;34.67;;;14.83;;
64011;SDS011;50211;52.768;12.124;2023-02-13T09:39:36;35.80;;;16.33;;
64011;SDS011;50211;52.768;12.124;2023-02-13T09:42:14;23.47;;;9.33;;
64011;SDS011;50211;52.768;12.124;2023-02-13T09:44:42;19.10;;;8.13;;
64011;SDS011;50211;52.768;12.124;2023-02-13T09:47:27;22.10;;;9.80;;
64011;SDS011;50211;52.768;12.124;2023-02-13T09:52:24;17.27;;;7.60;;
64011;SDS011;50211;52.768;12.124;2023-02-13T09:54:52;15.00;;;6.37;;
64011;SDS011;50211;52.768;12.124;2023-02-13T09:57:32;24.67;;;7.20;;
64011;SDS011;50211;52.768;12.124;2023-02-13T10:00:03;15.90;;;6.87;;
64011;SDS011;50211;52.768;12.124;2023-02-13T10:02:46;19.43;;;7.47;;
64011;SDS011;50211;52.768;12.124;2023-02-13T10:08:29;20.27;;;9.90;;
64011;SDS011;50211;52.768;12.124;2023-02-13T10:22:06;18.73;;;7.00;;
64011;SDS011;50211;52.768;12.124;2023-02-13T10:25:07;16.90;;;8.00;;
64011;SDS011;50211;52.768;12.124;2023-02-13T10:27:43;17.17;;;7.30;;
64011;SDS011;50211;52.768;12.124;2023-02-13T10:30:27;18.13;;;7.33;;
64011;SDS011;50211;52.768;12.124;2023-02-13T10:33:12;17.53;;;8.63;;
64011;SDS011;50211;52.768;12.124;2023-02-13T10:36:04;14.80;;;6.53;;
64011;SDS011;50211;52.768;12.124;2023-02-13T10:38:37;19.07;;;7.93;;
64011;SDS011;50211;52.768;12.124;2023-02-13T10:49:33;14.40;;;6.20;;
64011;SDS011;50211;52.768;12.124;2023-02-13T10:52:16;15.87;;;6.83;;
64011;SDS011;50211;52.768;12.124;2023-02-13T11:00:54;13.07;;;6.80;;
64011;SDS011;50211;52.768;12.124;2023-02-13T11:03:25;17.20;;;7.53;;
64011;SDS011;50211;52.768;12.124;2023-02-13T11:05:52;14.60;;;7.13;;
64011;SDS011;50211;52.768;12.124;2023-02-13T11:08:53;13.27;;;5.73;;
64011;SDS011;50211;52.768;12.124;2023-02-13T11:11:27;16.07;;;5.50;;
64011;SDS011;50211;52.768;12.124;2023-02-13T11:14:41;16.93;;;6.43;;
64011;SDS011;50211;52.768;12.124;2023-02-13T11:16:52;11.73;;;5.30;;
64011;SDS011;50211;52.768;12.124;2023-02-13T11:19:21;12.03;;;6.03;;
64011;SDS011;50211;52.768;12.124;2023-02-13T11:21:58;13.40;;;5.82;;
64011;SDS011;50211;52.768;12.124;2023-02-13T11:24:28;16.80;;;6.30;;
64011;SDS011;50211;52.768;12.124;2023-02-13T11:26:59;11.33;;;5.20;;
64011;SDS011;50211;52.768;12.124;2023-02-13T11:29:30;13.97;;;5.60;;
64011;SDS011;50211;52.768;12.124;2023-02-13T11:32:31;10.43;;;5.50;;
64011;SDS011;50211;52.768;12.124;2023-02-13T11:34:56;17.83;;;6.68;;
64011;SDS011;50211;52.768;12.124;2023-02-13T11:37:28;12.93;;;5.50;;
64011;SDS011;50211;52.768;12.124;2023-02-13T11:39:56;11.47;;;5.70;;
64011;SDS011;50211;52.768;12.124;2023-02-13T11:42:24;12.80;;;6.60;;
64011;SDS011;50211;52.768;12.124;2023-02-13T11:44:59;14.27;;;6.03;;
64011;SDS011;50211;52.768;12.124;2023-02-13T11:47:38;15.07;;;6.70;;
64011;SDS011;50211;52.768;12.124;2023-02-13T11:50:27;12.53;;;6.23;;
64011;SDS011;50211;52.768;12.124;2023-02-13T11:53:03;14.20;;;5.83;;
64011;SDS011;50211;52.768;12.124;2023-02-13T11:55:32;15.27;;;6.13;;
64011;SDS011;50211;52.768;12.124;2023-02-13T11:58:00;15.05;;;6.32;;
64011;SDS011;50211;52.768;12.124;2023-02-13T12:00:46;11.57;;;5.90;;
64011;SDS011;50211;52.768;12.124;2023-02-13T12:03:28;10.30;;;5.47;;
64011;SDS011;50211;52.768;12.124;2023-02-13T12:08:37;12.70;;;5.50;;
64011;SDS011;50211;52.768;12.124;2023-02-13T12:13:52;14.68;;;9.10;;
64011;SDS011;50211;52.768;12.124;2023-02-13T12:18:48;13.17;;;6.53;;
64011;SDS011;50211;52.768;12.124;2023-02-13T12:24:16;12.60;;;6.68;;
64011;SDS011;50211;52.768;12.124;2023-02-13T12:26:57;17.63;;;8.37;;
64011;SDS011;50211;52.768;12.124;2023-02-13T12:29:36;20.45;;;9.02;;
64011;SDS011;50211;52.768;12.124;2023-02-13T12:35:02;14.17;;;6.30;;
64011;SDS011;50211;52.768;12.124;2023-02-13T12:46:05;14.43;;;6.17;;
64011;SDS011;50211;52.768;12.124;2023-02-13T13:02:53;19.30;;;9.63;;
64011;SDS011;50211;52.768;12.124;2023-02-13T13:05:41;18.43;;;8.23;;
64011;SDS011;50211;52.768;12.124;2023-02-13T13:08:17;11.85;;;6.70;;
64011;SDS011;50211;52.768;12.124;2023-02-13T13:16:38;12.93;;;6.80;;
64011;SDS011;50211;52.768;12.124;2023-02-13T13:19:24;13.20;;;5.63;;
64011;SDS011;50211;52.768;12.124;2023-02-13T13:27:23;17.23;;;7.47;;
64011;SDS011;50211;52.768;12.124;2023-02-13T13:29:58;15.93;;;7.60;;
64011;SDS011;50211;52.768;12.124;2023-02-13T13:32:45;12.93;;;5.73;;
64011;SDS011;50211;52.768;12.124;2023-02-13T13:35:15;13.23;;;5.80;;
64011;SDS011;50211;52.768;12.124;2023-02-13T13:37:50;15.05;;;6.78;;
64011;SDS011;50211;52.768;12.124;2023-02-13T13:40:41;25.52;;;10.73;;
64011;SDS011;50211;52.768;12.124;2023-02-13T13:45:41;21.47;;;10.57;;
64011;SDS011;50211;52.768;12.124;2023-02-13T13:48:34;22.25;;;9.77;;
64011;SDS011;50211;52.768;12.124;2023-02-13T13:51:11;28.02;;;14.52;;
64011;SDS011;50211;52.768;12.124;2023-02-13T13:56:23;14.20;;;7.20;;
64011;SDS011;50211;52.768;12.124;2023-02-13T13:58:49;36.10;;;17.58;;
64011;SDS011;50211;52.768;12.124;2023-02-13T14:04:00;19.40;;;10.70;;
64011;SDS011;50211;52.768;12.124;2023-02-13T14:11:51;18.80;;;10.00;;
64011;SDS011;50211;52.768;12.124;2023-02-13T14:16:52;16.10;;;8.77;;
64011;SDS011;50211;52.768;12.124;2023-02-13T14:19:32;23.75;;;11.90;;
64011;SDS011;50211;52.768;12.124;2023-02-13T14:24:55;11.98;;;5.93;;
64011;SDS011;50211;52.768;12.124;2023-02-13T14:27:23;16.63;;;7.10;;
64011;SDS011;50211;52.768;12.124;2023-02-13T14:29:52;17.73;;;7.32;;
64011;SDS011;50211;52.768;12.124;2023-02-13T14:32:36;15.63;;;7.28;;
64011;SDS011;50211;52.768;12.124;2023-02-13T14:38:05;15.73;;;6.90;;
64011;SDS011;50211;52.768;12.124;2023-02-13T14:40:43;16.43;;;7.87;;
64011;SDS011;50211;52.768;12.124;2023-02-13T14:43:18;16.17;;;7.90;;
64011;SDS011;50211;52.768;12.124;2023-02-13T14:45:52;16.30;;;7.68;;
64011;SDS011;50211;52.768;12.124;2023-02-13T14:48:22;17.87;;;8.80;;
64011;SDS011;50211;52.768;12.124;2023-02-13T14:50:57;21.17;;;9.50;;
64011;SDS011;50211;52.768;12.124;2023-02-13T14:53:31;17.07;;;7.53;;
64011;SDS011;50211;52.768;12.124;2023-02-13T14:56:12;17.53;;;8.77;;
64011;SDS011;50211;52.768;12.124;2023-02-13T14:58:43;20.73;;;9.03;;
64011;SDS011;50211;52.768;12.124;2023-02-13T15:03:46;13.73;;;8.05;;
64011;SDS011;50211;52.768;12.124;2023-02-13T15:06:21;20.57;;;9.83;;
64011;SDS011;50211;52.768;12.124;2023-02-13T15:08:53;20.93;;;9.10;;
64011;SDS011;50211;52.768;12.124;2023-02-13T15:11:41;14.70;;;7.47;;
64011;SDS011;50211;52.768;12.124;2023-02-13T15:14:14;20.83;;;9.47;;
64011;SDS011;50211;52.768;12.124;2023-02-13T15:16:39;19.58;;;8.07;;
64011;SDS011;50211;52.768;12.124;2023-02-13T15:19:05;17.27;;;7.90;;
64011;SDS011;50211;52.768;12.124;2023-02-13T15:21:38;18.38;;;8.68;;
64011;SDS011;50211;52.768;12.124;2023-02-13T15:24:10;16.87;;;8.17;;
64011;SDS011;50211;52.768;12.124;2023-02-13T15:26:40;14.70;;;7.63;;
64011;SDS011;50211;52.768;12.124;2023-02-13T15:29:14;13.20;;;6.50;;
64011;SDS011;50211;52.768;12.124;2023-02-13T15:31:42;18.65;;;9.75;;
64011;SDS011;50211;52.768;12.124;2023-02-13T15:34:24;21.00;;;8.20;;
64011;SDS011;50211;52.768;12.124;2023-02-13T15:36:52;16.92;;;9.18;;
64011;SDS011;50211;52.768;12.124;2023-02-13T15:39:22;17.00;;;7.43;;
64011;SDS011;50211;52.768;12.124;2023-02-13T15:41:50;15.97;;;7.10;;
64011;SDS011;50211;52.768;12.124;2023-02-13T15:44:25;15.93;;;8.03;;
64011;SDS011;50211;52.768;12.124;2023-02-13T15:46:59;16.13;;;8.30;;
64011;SDS011;50211;52.768;12.124;2023-02-13T15:49:52;18.07;;;9.20;;
64011;SDS011;50211;52.768;12.124;2023-02-13T15:52:19;16.63;;;7.87;;
64011;SDS011;50211;52.768;12.124;2023-02-13T15:54:47;15.57;;;7.40;;
64011;SDS011;50211;52.768;12.124;2023-02-13T15:57:17;22.33;;;9.93;;
64011;SDS011;50211;52.768;12.124;2023-02-13T15:59:44;18.55;;;9.23;;
64011;SDS011;50211;52.768;12.124;2023-02-13T16:02:11;19.27;;;9.53;;
64011;SDS011;50211;52.768;12.124;2023-02-13T16:04:49;16.00;;;7.93;;
64011;SDS011;50211;52.768;12.124;2023-02-13T16:07:17;17.37;;;8.60;;
64011;SDS011;50211;52.768;12.124;2023-02-13T16:09:42;18.43;;;8.37;;
64011;SDS011;50211;52.768;12.124;2023-02-13T16:14:51;17.10;;;8.10;;
64011;SDS011;50211;52.768;12.124;2023-02-13T16:17:30;16.23;;;7.23;;
64011;SDS011;50211;52.768;12.124;2023-02-13T16:19:59;13.40;;;7.33;;
64011;SDS011;50211;52.768;12.124;2023-02-13T16:22:32;24.87;;;8.90;;
64011;SDS011;50211;52.768;12.124;2023-02-13T16:27:48;17.67;;;7.90;;
64011;SDS011;50211;52.768;12.124;2023-02-13T16:32:50;13.67;;;6.73;;
64011;SDS011;50211;52.768;12.124;2023-02-13T16:35:16;15.00;;;7.23;;
64011;SDS011;50211;52.768;12.124;2023-02-13T16:37:52;17.20;;;6.67;;
64011;SDS011;50211;52.768;12.124;2023-02-13T16:40:39;17.97;;;7.30;;
64011;SDS011;50211;52.768;12.124;2023-02-13T16:48:43;16.20;;;7.03;;
64011;SDS011;50211;52.768;12.124;2023-02-13T16:51:23;13.73;;;6.47;;
64011;SDS011;50211;52.768;12.124;2023-02-13T16:54:36;13.57;;;6.65;;
64011;SDS011;50211;52.768;12.124;2023-02-13T16:56:45;18.38;;;8.23;;
64011;SDS011;50211;52.768;12.124;2023-02-13T17:02:41;14.80;;;7.93;;
64011;SDS011;50211;52.768;12.124;2023-02-13T17:07:41;16.57;;;8.73;;
64011;SDS011;50211;52.768;12.124;2023-02-13T17:10:21;32.23;;;17.03;;
64011;SDS011;50211;52.768;12.124;2023-02-13T17:13:05;41.37;;;19.37;;
64011;SDS011;50211;52.768;12.124;2023-02-13T17:15:42;25.37;;;12.33;;
64011;SDS011;50211;52.768;12.124;2023-02-13T17:18:09;30.60;;;15.13;;
64011;SDS011;50211;52.768;12.124;2023-02-13T17:20:34;19.00;;;9.77;;
64011;SDS011;50211;52.768;12.124;2023-02-13T17:23:02;21.17;;;9.77;;